createdAt,value
2018-03-18T00:01:58.055Z,14.98
2018-03-18T00:04:26.375Z,17.58
2018-03-18T00:06:53.982Z,15.13
2018-03-18T00:09:22.295Z,15.57
2018-03-18T00:11:49.799Z,15.15
2018-03-18T00:14:17.290Z,15.45
2018-03-18T00:16:45.662Z,14.38
2018-03-18T00:19:13.202Z,15.00
2018-03-18T00:21:40.832Z,15.05
2018-03-18T00:24:08.348Z,14.60
2018-03-18T00:26:37.553Z,15.65
2018-03-18T00:29:05.825Z,15.00
2018-03-18T00:31:34.094Z,15.23
2018-03-18T00:34:02.351Z,14.65
2018-03-18T00:36:29.873Z,15.35
2018-03-18T00:38:57.358Z,13.93
2018-03-18T00:41:24.854Z,15.75
2018-03-18T00:43:53.398Z,13.68
2018-03-18T00:46:20.886Z,14.00
2018-03-18T00:48:49.166Z,13.20
2018-03-18T00:51:29.139Z,14.30
2018-03-18T00:53:56.646Z,14.43
2018-03-18T00:56:24.143Z,14.00
2018-03-18T00:58:52.431Z,13.57
2018-03-18T01:01:20.685Z,12.32
2018-03-18T01:03:48.962Z,13.32
2018-03-18T01:06:17.402Z,14.60
2018-03-18T01:08:44.918Z,13.82
2018-03-18T01:11:12.418Z,12.95
2018-03-18T01:13:39.965Z,13.70
2018-03-18T01:16:07.446Z,13.13
2018-03-18T01:18:34.956Z,13.77
2018-03-18T01:21:02.497Z,13.35
2018-03-18T01:23:30.762Z,14.40
2018-03-18T01:25:58.245Z,13.70
2018-03-18T01:28:26.533Z,13.90
2018-03-18T01:30:54.071Z,14.00
2018-03-18T01:33:22.544Z,14.27
2018-03-18T01:35:50.214Z,13.00
2018-03-18T01:38:18.474Z,13.70
2018-03-18T01:40:45.970Z,14.05
2018-03-18T01:43:13.511Z,14.77
2018-03-18T01:45:41.793Z,13.25
2018-03-18T01:48:10.058Z,14.65
2018-03-18T01:50:38.354Z,14.32
2018-03-18T01:53:17.982Z,12.90
2018-03-18T01:55:46.242Z,13.13
2018-03-18T01:58:13.742Z,14.80
2018-03-18T02:00:41.241Z,13.60
2018-03-18T02:03:08.843Z,12.25
2018-03-18T02:05:37.118Z,14.07
2018-03-18T02:08:05.405Z,13.20
2018-03-18T02:10:32.903Z,14.15
2018-03-18T02:13:00.415Z,13.20
2018-03-18T02:15:29.690Z,14.77
2018-03-18T02:17:57.313Z,16.83
2018-03-18T02:20:24.850Z,13.10
2018-03-18T02:22:52.362Z,14.40
2018-03-18T02:25:19.893Z,13.93
2018-03-18T02:27:47.386Z,14.52
2018-03-18T02:30:14.918Z,13.82
2018-03-18T02:32:42.423Z,13.45
2018-03-18T02:35:10.685Z,12.80
2018-03-18T02:37:38.202Z,14.00
2018-03-18T02:40:05.694Z,14.25
2018-03-18T02:42:33.182Z,14.65
2018-03-18T02:45:01.458Z,13.45
2018-03-18T02:47:29.738Z,14.35
2018-03-18T02:49:58.006Z,12.50
2018-03-18T02:52:26.534Z,13.13
2018-03-18T02:54:55.017Z,13.93
2018-03-18T02:57:23.394Z,13.75
2018-03-18T02:59:50.911Z,14.65
2018-03-18T03:02:19.191Z,13.10
2018-03-18T03:04:47.464Z,15.10
2018-03-18T03:07:15.738Z,14.35
2018-03-18T03:09:44.020Z,13.38
2018-03-18T03:12:12.298Z,14.90
2018-03-18T03:14:40.571Z,13.85
2018-03-18T03:17:08.850Z,13.35
2018-03-18T03:19:37.122Z,14.18
2018-03-18T03:22:05.385Z,14.77
2018-03-18T03:24:33.089Z,15.10
2018-03-18T03:27:00.606Z,13.90
2018-03-18T03:29:28.122Z,14.73
2018-03-18T03:31:55.645Z,15.50
2018-03-18T03:34:23.914Z,16.80
2018-03-18T03:36:51.418Z,15.30
2018-03-18T03:39:18.914Z,15.18
2018-03-18T03:41:46.414Z,15.80
2018-03-18T03:44:18.808Z,15.25
2018-03-18T03:46:46.307Z,14.93
2018-03-18T03:49:14.511Z,14.73
2018-03-18T03:51:42.905Z,15.80
2018-03-18T03:54:10.406Z,15.25
2018-03-18T03:56:37.929Z,16.30
2018-03-18T03:59:05.559Z,15.68
2018-03-18T04:01:33.118Z,15.68
2018-03-18T04:04:01.394Z,15.18
2018-03-18T04:06:29.666Z,14.50
2018-03-18T04:08:57.171Z,15.40
2018-03-18T04:11:24.662Z,14.75
2018-03-18T04:13:52.268Z,17.77
2018-03-18T04:16:19.762Z,17.05
2018-03-18T04:18:47.265Z,15.50
2018-03-18T04:21:15.556Z,15.65
2018-03-18T04:23:43.817Z,15.77
2018-03-18T04:26:11.302Z,15.23
2018-03-18T04:28:38.810Z,17.23
2018-03-18T04:31:06.309Z,15.00
2018-03-18T04:33:34.574Z,16.50
2018-03-18T04:36:02.831Z,17.23
2018-03-18T04:38:30.826Z,16.70
2018-03-18T04:40:59.107Z,14.65
2018-03-18T04:43:27.362Z,15.57
2018-03-18T04:45:54.851Z,15.90
2018-03-18T04:48:23.822Z,14.38
2018-03-18T04:50:52.095Z,15.32
2018-03-18T04:53:22.165Z,14.60
2018-03-18T04:55:49.694Z,13.30
2018-03-18T04:58:17.959Z,15.05
2018-03-18T05:00:46.211Z,14.55
2018-03-18T05:03:13.726Z,15.23
2018-03-18T05:05:41.213Z,16.50
2018-03-18T05:08:09.466Z,14.30
2018-03-18T05:10:36.986Z,16.42
2018-03-18T05:13:05.379Z,15.30
2018-03-18T05:15:32.891Z,15.25
2018-03-18T05:18:00.403Z,14.02
2018-03-18T05:20:27.901Z,15.57
2018-03-18T05:22:55.381Z,15.02
2018-03-18T05:25:22.903Z,14.00
2018-03-18T05:27:50.395Z,15.15
2018-03-18T05:30:17.901Z,15.25
2018-03-18T05:32:45.430Z,13.48
2018-03-18T05:35:12.922Z,15.23
2018-03-18T05:37:40.422Z,15.10
2018-03-18T05:40:07.918Z,13.77
2018-03-18T05:42:36.255Z,15.93
2018-03-18T05:45:03.754Z,15.90
2018-03-18T05:47:33.465Z,14.32
2018-03-18T05:50:01.729Z,13.70
2018-03-18T05:52:30.013Z,15.18
2018-03-18T05:54:58.303Z,14.60
2018-03-18T05:57:26.555Z,14.05
2018-03-18T05:59:54.059Z,14.68
2018-03-18T06:02:21.586Z,13.75
2018-03-18T06:04:50.013Z,13.73
2018-03-18T06:07:17.676Z,13.75
2018-03-18T06:09:45.223Z,13.90
2018-03-18T06:12:12.835Z,14.32
2018-03-18T06:14:40.783Z,13.43
2018-03-18T06:17:08.411Z,13.15
2018-03-18T06:19:36.083Z,13.35
2018-03-18T06:22:03.597Z,13.32
2018-03-18T06:24:31.997Z,13.65
2018-03-18T06:26:59.622Z,12.15
2018-03-18T06:29:28.262Z,14.25
2018-03-18T06:31:55.765Z,12.40
2018-03-18T06:34:23.382Z,13.18
2018-03-18T06:36:51.687Z,13.50
2018-03-18T06:39:19.175Z,14.30
2018-03-18T06:41:47.465Z,12.60
2018-03-18T06:44:15.852Z,12.50
2018-03-18T06:46:43.358Z,13.50
2018-03-18T06:49:10.846Z,14.25
2018-03-18T06:51:38.338Z,12.13
2018-03-18T06:54:05.822Z,11.98
2018-03-18T06:56:33.432Z,13.07
2018-03-18T06:59:01.746Z,12.40
2018-03-18T07:01:29.344Z,12.80
2018-03-18T07:03:56.883Z,12.30
2018-03-18T07:06:24.448Z,12.70
2018-03-18T07:08:51.985Z,12.18
2018-03-18T07:11:19.643Z,13.07
2018-03-18T07:13:47.299Z,12.68
2018-03-18T07:16:14.868Z,13.00
2018-03-18T07:18:42.419Z,12.00
2018-03-18T07:21:10.026Z,12.75
2018-03-18T07:23:37.646Z,11.70
2018-03-18T07:26:05.231Z,12.25
2018-03-18T07:28:32.791Z,12.23
2018-03-18T07:31:00.294Z,11.70
2018-03-18T07:33:28.573Z,13.57
2018-03-18T07:35:56.977Z,12.40
2018-03-18T07:38:24.490Z,13.50
2018-03-18T07:40:52.127Z,14.13
2018-03-18T07:43:19.633Z,12.32
2018-03-18T07:45:47.153Z,13.70
2018-03-18T07:48:14.778Z,12.20
2018-03-18T07:50:42.339Z,12.05
2018-03-18T07:53:09.938Z,13.35
2018-03-18T07:55:39.933Z,12.77
2018-03-18T07:58:07.524Z,11.40
2018-03-18T08:00:35.204Z,11.05
2018-03-18T08:03:03.565Z,13.13
2018-03-18T08:05:31.074Z,12.63
2018-03-18T08:07:58.594Z,12.43
2018-03-18T08:10:26.145Z,13.35
2018-03-18T08:12:53.729Z,14.25
2018-03-18T08:15:21.353Z,12.80
2018-03-18T08:17:48.876Z,13.10
2018-03-18T08:20:16.510Z,13.93
2018-03-18T08:22:44.879Z,13.95
2018-03-18T08:25:12.431Z,13.77
2018-03-18T08:27:40.039Z,12.70
2018-03-18T08:30:07.567Z,14.60
2018-03-18T08:32:35.115Z,13.48
2018-03-18T08:35:02.926Z,13.02
2018-03-18T08:37:30.601Z,12.30
2018-03-18T08:39:58.163Z,12.30
2018-03-18T08:42:28.412Z,12.37
2018-03-18T08:44:57.008Z,11.18
2018-03-18T08:47:24.584Z,11.25
2018-03-18T08:49:52.235Z,12.05
2018-03-18T08:52:19.862Z,12.73
2018-03-18T08:54:47.374Z,11.70
2018-03-18T08:57:15.654Z,12.63
2018-03-18T08:59:43.960Z,12.57
2018-03-18T09:02:11.626Z,12.07
2018-03-18T09:04:39.164Z,11.95
2018-03-18T09:07:07.468Z,12.93
2018-03-18T09:09:34.998Z,11.25
2018-03-18T09:12:03.262Z,11.73
2018-03-18T09:14:31.607Z,11.73
2018-03-18T09:17:05.596Z,10.98
2018-03-18T09:19:39.860Z,13.57
2018-03-18T09:22:17.894Z,11.65
2018-03-18T09:24:45.415Z,12.75
2018-03-18T09:27:18.239Z,12.43
2018-03-18T09:29:46.134Z,11.80
2018-03-18T09:32:13.811Z,12.70
2018-03-18T09:34:41.450Z,12.02
2018-03-18T09:37:15.555Z,11.20
2018-03-18T09:39:43.596Z,12.85
2018-03-18T09:42:11.905Z,11.48
2018-03-18T09:44:41.350Z,13.32
2018-03-18T09:47:11.118Z,11.95
2018-03-18T09:49:38.790Z,11.70
2018-03-18T09:52:06.451Z,13.27
2018-03-18T09:54:51.493Z,12.27
2018-03-18T09:57:22.143Z,12.15
2018-03-18T09:59:49.789Z,12.40
2018-03-18T10:02:17.357Z,13.25
2018-03-18T10:04:44.958Z,11.23
2018-03-18T10:07:12.732Z,11.80
2018-03-18T10:09:40.222Z,11.20
2018-03-18T10:12:08.499Z,11.80
2018-03-18T10:17:30.999Z,11.90
2018-03-18T10:19:58.654Z,13.10
2018-03-18T10:22:26.176Z,12.20
2018-03-18T10:24:53.854Z,11.18
2018-03-18T10:27:23.206Z,12.50
2018-03-18T10:29:51.803Z,11.63
2018-03-18T10:32:21.092Z,12.18
2018-03-18T10:34:48.936Z,14.65
2018-03-18T10:37:16.619Z,12.82
2018-03-18T10:39:44.887Z,12.48
2018-03-18T10:42:12.944Z,11.18
2018-03-18T10:44:40.588Z,12.05
2018-03-18T10:47:08.491Z,11.07
2018-03-18T10:49:36.452Z,12.90
2018-03-18T10:52:11.419Z,11.35
2018-03-18T10:54:38.978Z,13.48
2018-03-18T10:57:07.519Z,12.65
2018-03-18T10:59:35.078Z,13.18
2018-03-18T11:02:05.486Z,14.00
2018-03-18T11:04:33.064Z,12.27
2018-03-18T11:07:01.401Z,12.18
2018-03-18T11:09:32.812Z,13.38
2018-03-18T11:12:01.177Z,14.13
2018-03-18T11:14:28.748Z,12.60
2018-03-18T11:16:57.526Z,13.50
2018-03-18T11:19:25.112Z,13.02
2018-03-18T11:21:52.646Z,15.25
2018-03-18T11:24:48.532Z,13.60
2018-03-18T11:27:17.949Z,13.10
2018-03-18T11:29:45.575Z,15.38
2018-03-18T11:32:31.771Z,14.40
2018-03-18T11:35:04.402Z,13.98
2018-03-18T11:37:37.956Z,16.27
2018-03-18T11:42:55.633Z,15.27
2018-03-18T11:45:23.187Z,14.40
2018-03-18T11:47:54.160Z,14.70
2018-03-18T11:50:22.591Z,15.02
2018-03-18T11:52:56.836Z,15.52
2018-03-18T11:55:26.154Z,14.77
2018-03-18T11:58:01.067Z,15.70
2018-03-18T12:00:30.687Z,15.07
2018-03-18T12:03:01.407Z,16.70
2018-03-18T12:05:35.835Z,15.20
2018-03-18T12:08:03.747Z,14.18
2018-03-18T12:10:31.368Z,15.80
2018-03-18T12:12:58.961Z,14.48
2018-03-18T12:15:26.640Z,15.60
2018-03-18T12:17:54.301Z,15.52
2018-03-18T12:20:21.882Z,15.77
2018-03-18T12:22:49.514Z,15.52
2018-03-18T12:25:17.121Z,15.77
2018-03-18T12:27:44.623Z,15.68
2018-03-18T12:30:12.150Z,16.25
2018-03-18T12:32:39.678Z,14.10
2018-03-18T12:35:07.218Z,14.48
2018-03-18T12:37:34.707Z,14.82
2018-03-18T12:40:15.067Z,14.73
2018-03-18T12:42:55.270Z,14.90
2018-03-18T12:45:23.807Z,15.40
2018-03-18T12:47:51.814Z,15.07
2018-03-18T12:50:19.370Z,14.90
2018-03-18T12:52:46.862Z,14.18
2018-03-18T12:55:14.470Z,16.15
2018-03-18T12:57:42.099Z,14.75
2018-03-18T13:00:11.154Z,13.65
2018-03-18T13:02:39.516Z,13.60
2018-03-18T13:05:07.057Z,15.52
2018-03-18T13:07:34.606Z,14.90
2018-03-18T13:10:02.920Z,13.25
2018-03-18T13:12:30.526Z,14.18
2018-03-18T13:14:58.172Z,15.43
2018-03-18T13:17:26.728Z,14.02
2018-03-18T13:19:54.368Z,12.85
2018-03-18T13:22:22.054Z,13.07
2018-03-18T13:24:49.621Z,14.68
2018-03-18T13:27:17.337Z,14.75
2018-03-18T13:29:45.680Z,13.93
2018-03-18T13:32:13.993Z,14.68
2018-03-18T13:34:41.591Z,14.00
2018-03-18T13:37:09.159Z,14.02
2018-03-18T13:39:36.711Z,13.55
2018-03-18T13:42:04.554Z,13.73
2018-03-18T13:44:32.117Z,13.85
2018-03-18T13:46:59.700Z,13.65
2018-03-18T13:49:28.044Z,13.50
2018-03-18T13:51:55.589Z,12.30
2018-03-18T13:54:23.157Z,13.65
2018-03-18T13:56:50.694Z,13.40
2018-03-18T13:59:18.227Z,13.30
2018-03-18T14:01:45.793Z,11.90
2018-03-18T14:04:13.350Z,13.52
2018-03-18T14:06:40.910Z,13.60
2018-03-18T14:09:09.230Z,12.68
2018-03-18T14:11:38.408Z,11.82
2018-03-18T14:14:06.002Z,11.90
2018-03-18T14:16:33.601Z,12.98
2018-03-18T14:19:01.161Z,12.23
2018-03-18T14:21:28.831Z,14.20
2018-03-18T14:23:56.363Z,12.35
2018-03-18T14:26:24.000Z,13.38
2018-03-18T14:28:52.401Z,12.07
2018-03-18T14:31:19.947Z,14.48
2018-03-18T14:33:47.492Z,12.13
2018-03-18T14:36:15.082Z,12.57
2018-03-18T14:38:42.613Z,12.73
2018-03-18T14:41:10.203Z,12.57
2018-03-18T14:43:37.716Z,12.95
2018-03-18T14:46:05.244Z,13.32
2018-03-18T14:48:32.848Z,12.65
2018-03-18T14:51:00.636Z,13.62
2018-03-18T14:53:29.925Z,12.50
2018-03-18T14:55:57.508Z,12.55
2018-03-18T14:58:25.078Z,11.48
2018-03-18T15:00:52.695Z,12.07
2018-03-18T15:03:20.219Z,11.35
2018-03-18T15:05:48.501Z,11.18
2018-03-18T15:08:16.800Z,12.10
2018-03-18T15:10:44.367Z,12.20
2018-03-18T15:13:11.922Z,13.43
2018-03-18T15:15:39.486Z,13.18
2018-03-18T15:18:07.063Z,12.45
2018-03-18T15:20:34.582Z,11.80
2018-03-18T15:23:02.198Z,11.90
2018-03-18T15:25:29.753Z,10.57
2018-03-18T15:27:57.315Z,11.12
2018-03-18T15:30:24.859Z,11.65
2018-03-18T15:32:52.442Z,11.15
2018-03-18T15:35:19.982Z,12.73
2018-03-18T15:37:47.559Z,11.73
2018-03-18T15:40:15.063Z,10.57
2018-03-18T15:42:43.358Z,10.90
2018-03-18T15:45:10.843Z,10.18
2018-03-18T15:47:38.343Z,10.90
2018-03-18T15:50:06.600Z,12.55
2018-03-18T15:52:34.191Z,10.65
2018-03-18T15:55:01.817Z,10.50
2018-03-18T15:57:29.298Z,10.23
2018-03-18T15:59:57.757Z,11.85
2018-03-18T16:02:25.355Z,11.05
2018-03-18T16:04:52.890Z,11.02
2018-03-18T16:07:20.520Z,10.73
2018-03-18T16:09:48.058Z,10.85
2018-03-18T16:12:15.588Z,10.80
2018-03-18T16:14:43.967Z,10.52
2018-03-18T16:17:11.503Z,11.50
2018-03-18T16:19:39.054Z,10.27
2018-03-18T16:22:06.613Z,9.95
2018-03-18T16:24:34.962Z,10.10
2018-03-18T16:27:02.484Z,8.95
2018-03-18T16:29:42.989Z,10.32
2018-03-18T16:32:10.608Z,9.82
2018-03-18T16:34:38.119Z,10.50
2018-03-18T16:37:05.690Z,9.95
2018-03-18T16:39:33.227Z,10.10
2018-03-18T16:42:00.799Z,10.23
2018-03-18T16:44:28.395Z,8.98
2018-03-18T16:46:55.887Z,10.18
2018-03-18T16:49:23.426Z,9.30
2018-03-18T16:51:50.906Z,10.13
2018-03-18T16:54:18.398Z,8.90
2018-03-18T16:56:47.491Z,10.82
2018-03-18T16:59:15.749Z,10.80
2018-03-18T17:01:43.294Z,9.50
2018-03-18T17:04:10.899Z,10.40
2018-03-18T17:06:38.426Z,8.93
2018-03-18T17:09:05.992Z,10.13
2018-03-18T17:11:33.563Z,9.20
2018-03-18T17:14:01.051Z,8.55
2018-03-18T17:16:29.408Z,10.23
2018-03-18T17:18:56.914Z,9.68
2018-03-18T17:21:24.418Z,9.50
2018-03-18T17:23:51.943Z,9.60
2018-03-18T17:26:19.438Z,8.80
2018-03-18T17:28:46.918Z,9.90
2018-03-18T17:31:15.238Z,8.90
2018-03-18T17:33:42.723Z,10.75
2018-03-18T17:36:10.227Z,9.27
2018-03-18T17:38:37.732Z,9.20
2018-03-18T17:41:05.254Z,8.52
2018-03-18T17:43:33.928Z,9.55
2018-03-18T17:46:13.503Z,8.70
2018-03-18T17:48:52.750Z,8.73
2018-03-18T17:51:32.173Z,9.70
2018-03-18T17:54:11.614Z,9.65
2018-03-18T17:56:39.114Z,7.68
2018-03-18T17:59:06.590Z,8.73
2018-03-18T18:01:34.947Z,9.68
2018-03-18T18:04:03.940Z,10.02
2018-03-18T18:06:31.540Z,9.73
2018-03-18T18:08:59.080Z,8.68
2018-03-18T18:11:27.388Z,9.20
2018-03-18T18:13:54.894Z,9.52
2018-03-18T18:16:22.373Z,9.07
2018-03-18T18:18:50.765Z,10.85
2018-03-18T18:21:18.339Z,9.10
2018-03-18T18:23:45.945Z,8.63
2018-03-18T18:26:13.526Z,8.25
2018-03-18T18:28:41.855Z,8.90
2018-03-18T18:31:09.371Z,8.93
2018-03-18T18:33:37.610Z,9.63
2018-03-18T18:36:05.138Z,9.00
2018-03-18T18:38:32.626Z,9.40
2018-03-18T18:41:00.261Z,10.85
2018-03-18T18:43:27.884Z,9.15
2018-03-18T18:45:56.138Z,9.48
2018-03-18T18:48:23.658Z,9.80
2018-03-18T18:50:51.208Z,9.85
2018-03-18T18:53:18.694Z,7.93
2018-03-18T18:55:46.242Z,8.68
2018-03-18T18:58:14.377Z,9.18
2018-03-18T19:00:41.962Z,8.02
2018-03-18T19:03:09.746Z,8.25
2018-03-18T19:05:37.234Z,8.25
2018-03-18T19:08:05.522Z,8.65
2018-03-18T19:10:33.058Z,8.02
2018-03-18T19:13:01.360Z,9.52
2018-03-18T19:15:29.770Z,8.82
2018-03-18T19:17:57.343Z,8.32
2018-03-18T19:20:24.859Z,8.10
2018-03-18T19:22:53.184Z,8.63
2018-03-18T19:25:20.670Z,8.35
2018-03-18T19:27:48.160Z,8.95
2018-03-18T19:30:15.667Z,8.75
2018-03-18T19:32:43.218Z,9.38
2018-03-18T19:35:10.698Z,9.23
2018-03-18T19:37:38.313Z,9.25
2018-03-18T19:40:05.816Z,9.48
2018-03-18T19:42:33.295Z,7.95
2018-03-18T19:45:01.627Z,7.25
2018-03-18T19:47:29.170Z,8.70
2018-03-18T19:49:56.688Z,7.40
2018-03-18T19:52:25.051Z,6.45
2018-03-18T19:54:52.594Z,8.13
2018-03-18T19:57:20.098Z,6.55
2018-03-18T19:59:47.729Z,7.00
2018-03-18T20:02:15.330Z,6.80
2018-03-18T20:04:42.886Z,7.93
2018-03-18T20:07:10.425Z,7.65
2018-03-18T20:09:37.945Z,8.18
2018-03-18T20:12:05.539Z,8.25
2018-03-18T20:14:33.058Z,8.80
2018-03-18T20:17:00.654Z,7.37
2018-03-18T20:19:28.226Z,7.75
2018-03-18T20:21:56.696Z,8.95
2018-03-18T20:24:25.033Z,7.47
2018-03-18T20:26:52.643Z,7.47
2018-03-18T20:29:21.562Z,8.70
2018-03-18T20:31:49.157Z,7.55
2018-03-18T20:34:16.671Z,8.25
2018-03-18T20:36:44.250Z,7.85
2018-03-18T20:39:15.127Z,8.77
2018-03-18T20:41:42.819Z,8.90
2018-03-18T20:44:11.863Z,8.52
2018-03-18T20:46:40.131Z,8.10
2018-03-18T20:49:07.842Z,8.02
2018-03-18T20:51:35.430Z,9.60
2018-03-18T20:54:03.944Z,9.40
2018-03-18T20:56:31.543Z,9.50
2018-03-18T20:59:01.022Z,10.30
2018-03-18T21:01:29.342Z,11.15
2018-03-18T21:03:56.951Z,11.07
2018-03-18T21:06:24.628Z,11.32
2018-03-18T21:08:53.005Z,12.55
2018-03-18T21:11:20.600Z,10.95
2018-03-18T21:13:49.141Z,11.50
2018-03-18T21:16:16.679Z,11.85
2018-03-18T21:18:44.259Z,12.98
2018-03-18T21:21:11.773Z,11.60
2018-03-18T21:23:39.322Z,12.50
2018-03-18T21:26:07.658Z,11.65
2018-03-18T21:28:35.224Z,13.60
2018-03-18T21:31:02.770Z,10.95
2018-03-18T21:33:30.335Z,11.45
2018-03-18T21:35:57.894Z,10.98
2018-03-18T21:38:25.418Z,12.30
2018-03-18T21:40:52.968Z,11.77
2018-03-18T21:43:20.551Z,11.12
2018-03-18T21:45:48.091Z,13.25
2018-03-18T21:48:15.681Z,11.63
2018-03-18T21:50:43.283Z,11.68
2018-03-18T21:53:11.646Z,11.18
2018-03-18T21:55:39.184Z,11.32
2018-03-18T21:58:06.712Z,9.25
2018-03-18T22:00:34.236Z,11.05
2018-03-18T22:03:01.958Z,9.25
2018-03-18T22:05:29.510Z,8.48
2018-03-18T22:07:57.074Z,9.13
2018-03-18T22:10:24.587Z,8.32
2018-03-18T22:12:52.862Z,7.50
2018-03-18T22:15:21.156Z,8.30
2018-03-18T22:17:48.710Z,7.85
2018-03-18T22:20:17.058Z,7.28
2018-03-18T22:22:44.620Z,7.20
2018-03-18T22:25:12.184Z,7.62
2018-03-18T22:27:40.635Z,7.62
2018-03-18T22:30:08.323Z,7.60
2018-03-18T22:32:37.619Z,7.35
2018-03-18T22:35:05.203Z,8.25
2018-03-18T22:37:32.771Z,8.38
2018-03-18T22:40:00.397Z,6.93
2018-03-18T22:42:27.938Z,8.98
2018-03-18T22:44:55.590Z,8.57
2018-03-18T22:47:23.863Z,7.50
2018-03-18T22:49:51.443Z,6.95
2018-03-18T22:52:19.036Z,8.13
2018-03-18T22:54:47.342Z,7.80
2018-03-18T22:57:14.960Z,7.55
2018-03-18T22:59:43.270Z,7.47
2018-03-18T23:02:10.903Z,8.32
2018-03-18T23:04:39.334Z,7.85
2018-03-18T23:07:06.878Z,7.43
2018-03-18T23:09:35.136Z,7.85
2018-03-18T23:12:02.743Z,8.18
2018-03-18T23:14:30.347Z,7.80
2018-03-18T23:16:57.907Z,7.93
2018-03-18T23:19:26.242Z,7.78
2018-03-18T23:21:53.816Z,7.57
2018-03-18T23:24:21.440Z,7.95
2018-03-18T23:26:48.926Z,7.80
2018-03-18T23:29:16.530Z,6.75
2018-03-18T23:31:44.139Z,7.65
2018-03-18T23:34:11.707Z,8.25
2018-03-18T23:36:39.278Z,7.55
2018-03-18T23:39:06.869Z,8.20
2018-03-18T23:41:34.378Z,7.18
2018-03-18T23:44:01.995Z,8.25
2018-03-18T23:46:29.584Z,7.35
2018-03-18T23:48:57.925Z,7.70
2018-03-18T23:51:26.466Z,6.47
2018-03-18T23:53:53.995Z,6.97
2018-03-18T23:56:21.519Z,7.60
2018-03-18T23:58:49.128Z,7.80
